createdAt,value
2023-02-18T00:01:31.774Z,34.80
2023-02-18T00:03:59.613Z,33.87
2023-02-18T00:06:31.911Z,37.80
2023-02-18T00:09:02.011Z,35.43
2023-02-18T00:11:30.723Z,35.47
2023-02-18T00:14:01.475Z,34.77
2023-02-18T00:16:30.166Z,42.10
2023-02-18T00:19:02.717Z,36.87
2023-02-18T00:21:31.068Z,40.07
2023-02-18T00:23:59.423Z,40.40
2023-02-18T00:26:29.752Z,36.27
2023-02-18T00:28:58.669Z,38.30
2023-02-18T00:31:27.136Z,36.20
2023-02-18T00:33:54.659Z,38.40
2023-02-18T00:36:22.393Z,33.67
2023-02-18T00:38:52.088Z,34.67
2023-02-18T00:41:19.472Z,35.00
2023-02-18T00:43:46.590Z,32.27
2023-02-18T00:46:13.509Z,38.57
2023-02-18T00:48:40.783Z,35.90
2023-02-18T00:51:08.664Z,40.30
2023-02-18T00:53:35.912Z,32.43
2023-02-18T00:56:02.766Z,36.03
2023-02-18T00:58:29.713Z,32.53
2023-02-18T01:00:56.759Z,37.93
2023-02-18T01:03:23.787Z,35.43
2023-02-18T01:05:54.438Z,37.17
2023-02-18T01:08:22.718Z,42.70
2023-02-18T01:10:52.844Z,38.30
2023-02-18T01:13:20.870Z,34.60
2023-02-18T01:15:47.656Z,37.70
2023-02-18T01:18:14.803Z,33.87
2023-02-18T01:20:42.867Z,42.80
2023-02-18T01:23:10.491Z,37.73
2023-02-18T01:25:38.992Z,34.20
2023-02-18T01:28:07.824Z,47.33
2023-02-18T01:30:37.727Z,37.27
2023-02-18T01:33:05.737Z,34.50
2023-02-18T01:35:34.018Z,35.60
2023-02-18T01:38:02.733Z,36.03
2023-02-18T01:40:31.937Z,35.73
2023-02-18T01:43:00.715Z,35.23
2023-02-18T01:45:49.768Z,36.83
2023-02-18T01:48:27.386Z,37.33
2023-02-18T01:50:58.913Z,36.13
2023-02-18T01:53:31.512Z,39.63
2023-02-18T01:56:02.870Z,42.10
2023-02-18T01:58:31.851Z,40.03
2023-02-18T02:01:00.938Z,34.40
2023-02-18T02:03:29.932Z,35.30
2023-02-18T02:05:59.071Z,37.50
2023-02-18T02:08:27.344Z,36.90
2023-02-18T02:11:01.421Z,39.17
2023-02-18T02:13:31.435Z,38.97
2023-02-18T02:16:06.750Z,38.23
2023-02-18T02:18:48.485Z,39.90
2023-02-18T02:21:28.316Z,38.70
2023-02-18T02:23:59.225Z,39.60
2023-02-18T02:26:41.039Z,36.57
2023-02-18T02:29:27.452Z,40.70
2023-02-18T02:32:04.829Z,35.60
2023-02-18T02:34:51.146Z,39.67
2023-02-18T02:37:25.438Z,38.50
2023-02-18T02:40:13.006Z,41.17
2023-02-18T02:42:47.989Z,36.93
2023-02-18T02:45:15.049Z,37.90
2023-02-18T02:47:46.485Z,43.17
2023-02-18T02:50:17.728Z,36.27
2023-02-18T02:52:46.843Z,38.00
2023-02-18T02:55:15.869Z,32.77
2023-02-18T02:57:52.164Z,40.13
2023-02-18T03:00:20.930Z,35.53
2023-02-18T03:03:12.231Z,34.17
2023-02-18T03:05:58.396Z,32.37
2023-02-18T03:08:42.793Z,31.60
2023-02-18T03:11:12.472Z,31.10
2023-02-18T03:13:49.699Z,26.43
2023-02-18T03:16:36.945Z,24.70
2023-02-18T03:19:11.139Z,27.37
2023-02-18T03:21:57.513Z,24.77
2023-02-18T03:24:27.171Z,26.77
2023-02-18T03:27:01.165Z,25.40
2023-02-18T03:29:29.475Z,22.40
2023-02-18T03:31:59.495Z,24.20
2023-02-18T03:34:30.860Z,23.57
2023-02-18T03:36:59.712Z,25.30
2023-02-18T03:39:28.982Z,27.50
2023-02-18T03:41:57.003Z,24.17
2023-02-18T03:44:26.091Z,21.20
2023-02-18T03:46:53.492Z,24.93
2023-02-18T03:49:20.581Z,25.73
2023-02-18T03:51:47.690Z,23.40
2023-02-18T03:54:15.067Z,20.40
2023-02-18T03:56:42.614Z,23.50
2023-02-18T03:59:09.732Z,22.50
2023-02-18T04:01:36.888Z,21.27
2023-02-18T04:04:04.146Z,26.53
2023-02-18T04:06:31.357Z,24.73
2023-02-18T04:08:58.436Z,21.67
2023-02-18T04:11:25.541Z,21.80
2023-02-18T04:13:52.994Z,22.03
2023-02-18T04:16:20.314Z,22.17
2023-02-18T04:18:47.464Z,21.53
2023-02-18T04:21:14.546Z,20.57
2023-02-18T04:23:41.634Z,21.57
2023-02-18T04:26:09.033Z,19.67
2023-02-18T04:28:36.326Z,23.60
2023-02-18T04:31:03.609Z,19.03
2023-02-18T04:33:30.770Z,22.43
2023-02-18T04:35:57.535Z,19.30
2023-02-18T04:38:24.285Z,17.13
2023-02-18T04:40:50.940Z,17.83
2023-02-18T04:43:17.621Z,17.47
2023-02-18T04:45:44.305Z,15.80
2023-02-18T04:48:11.011Z,16.63
2023-02-18T04:50:37.704Z,15.60
2023-02-18T04:53:04.404Z,17.03
2023-02-18T04:55:31.090Z,14.87
2023-02-18T04:57:57.802Z,14.23
2023-02-18T05:00:24.721Z,14.53
2023-02-18T05:02:51.398Z,16.53
2023-02-18T05:05:18.170Z,13.77
2023-02-18T05:07:44.841Z,13.60
2023-02-18T05:10:16.083Z,15.60
2023-02-18T05:12:43.241Z,13.73
2023-02-18T05:15:10.719Z,13.47
2023-02-18T05:17:37.520Z,15.80
2023-02-18T05:20:04.590Z,13.77
2023-02-18T05:22:31.255Z,15.30
2023-02-18T05:24:57.985Z,12.67
2023-02-18T05:27:24.754Z,13.13
2023-02-18T05:29:51.415Z,12.73
2023-02-18T05:32:18.224Z,12.53
2023-02-18T05:34:44.858Z,14.33
2023-02-18T05:37:13.630Z,12.73
2023-02-18T05:39:41.376Z,12.23
2023-02-18T05:42:08.216Z,13.33
2023-02-18T05:44:35.034Z,9.90
2023-02-18T05:47:10.333Z,10.47
2023-02-18T05:49:39.137Z,11.90
2023-02-18T05:52:05.883Z,9.53
2023-02-18T05:54:33.402Z,10.83
2023-02-18T05:57:00.194Z,8.53
2023-02-18T05:59:26.941Z,9.03
2023-02-18T06:01:53.928Z,10.60
2023-02-18T06:04:20.791Z,7.60
2023-02-18T06:06:47.471Z,9.27
2023-02-18T06:09:14.258Z,9.53
2023-02-18T06:11:40.919Z,7.87
2023-02-18T06:14:07.910Z,7.77
2023-02-18T06:16:34.635Z,6.83
2023-02-18T06:19:01.358Z,6.30
2023-02-18T06:21:28.090Z,7.23
2023-02-18T06:23:54.793Z,5.60
2023-02-18T06:26:21.530Z,7.00
2023-02-18T06:28:48.182Z,6.30
2023-02-18T06:31:15.539Z,6.13
2023-02-18T06:33:42.240Z,4.83
2023-02-18T06:36:13.731Z,5.50
2023-02-18T06:38:42.220Z,5.33
2023-02-18T06:41:09.673Z,8.33
2023-02-18T06:43:36.495Z,4.00
2023-02-18T06:46:04.245Z,4.80
2023-02-18T06:48:31.527Z,4.20
2023-02-18T06:50:58.579Z,3.60
2023-02-18T06:53:25.615Z,3.77
2023-02-18T06:55:52.278Z,3.90
2023-02-18T06:58:18.961Z,4.87
2023-02-18T07:00:45.763Z,3.73
2023-02-18T07:03:15.700Z,3.23
2023-02-18T07:05:42.816Z,3.93
2023-02-18T07:08:10.323Z,3.40
2023-02-18T07:10:37.306Z,4.97
2023-02-18T07:13:04.461Z,3.80
2023-02-18T07:15:32.177Z,2.63
2023-02-18T07:17:58.979Z,4.33
2023-02-18T07:20:26.328Z,3.30
2023-02-18T07:22:53.279Z,5.33
2023-02-18T07:25:22.840Z,3.37
2023-02-18T07:27:50.696Z,3.27
2023-02-18T07:30:18.261Z,3.13
2023-02-18T07:32:44.956Z,3.23
2023-02-18T07:35:14.344Z,3.57
2023-02-18T07:37:44.954Z,3.07
2023-02-18T07:40:14.859Z,3.77
2023-02-18T07:42:41.807Z,2.57
2023-02-18T07:45:09.177Z,2.67
2023-02-18T07:47:36.255Z,2.63
2023-02-18T07:50:03.679Z,2.60
2023-02-18T07:52:30.412Z,2.90
2023-02-18T07:54:57.269Z,4.00
2023-02-18T07:57:23.997Z,2.47
2023-02-18T07:59:50.671Z,2.40
2023-02-18T08:02:23.538Z,2.70
2023-02-18T08:04:50.272Z,2.60
2023-02-18T08:07:20.477Z,2.80
2023-02-18T08:09:48.981Z,2.43
2023-02-18T08:12:15.725Z,2.40
2023-02-18T08:14:42.497Z,5.63
2023-02-18T08:17:09.307Z,5.67
2023-02-18T08:19:35.980Z,6.83
2023-02-18T08:22:03.663Z,3.03
2023-02-18T08:24:30.357Z,1.90
2023-02-18T08:27:01.589Z,1.80
2023-02-18T08:29:29.153Z,1.90
2023-02-18T08:31:57.923Z,2.00
2023-02-18T08:34:24.950Z,1.70
2023-02-18T08:36:51.656Z,1.83
2023-02-18T08:39:18.319Z,2.10
2023-02-18T08:41:44.954Z,1.90
2023-02-18T08:44:11.678Z,1.93
2023-02-18T08:46:38.421Z,2.57
2023-02-18T08:49:05.528Z,1.83
2023-02-18T08:51:32.367Z,1.60
2023-02-18T08:53:59.061Z,2.30
2023-02-18T08:56:25.981Z,2.20
2023-02-18T08:58:52.670Z,2.30
2023-02-18T09:01:20.751Z,2.10
2023-02-18T09:03:48.651Z,2.00
2023-02-18T09:06:15.465Z,2.20
2023-02-18T09:08:42.153Z,2.30
2023-02-18T09:11:10.964Z,1.73
2023-02-18T09:13:38.668Z,2.20
2023-02-18T09:16:14.219Z,1.70
2023-02-18T09:18:41.411Z,2.63
2023-02-18T09:21:09.985Z,2.50
2023-02-18T09:23:37.395Z,3.10
2023-02-18T09:26:05.989Z,2.70
2023-02-18T09:28:32.951Z,2.30
2023-02-18T09:31:05.397Z,2.10
2023-02-18T09:33:34.356Z,2.20
2023-02-18T09:36:02.070Z,2.30
2023-02-18T09:38:29.118Z,2.97
2023-02-18T09:40:57.546Z,2.40
2023-02-18T09:43:32.703Z,3.63
2023-02-18T09:46:02.092Z,4.27
2023-02-18T09:48:34.922Z,4.27
2023-02-18T09:51:01.757Z,4.33
2023-02-18T09:53:28.635Z,5.67
2023-02-18T09:55:57.540Z,5.30
2023-02-18T09:58:29.662Z,6.50
2023-02-18T10:01:37.394Z,7.77
2023-02-18T10:04:12.931Z,8.20
2023-02-18T10:06:39.679Z,8.70
2023-02-18T10:09:22.843Z,27.83
2023-02-18T10:11:55.062Z,8.30
2023-02-18T10:14:21.718Z,5.33
2023-02-18T10:16:50.887Z,6.13
2023-02-18T10:19:20.576Z,6.93
2023-02-18T10:21:48.162Z,5.07
2023-02-18T10:24:29.642Z,5.27
2023-02-18T10:26:57.321Z,7.80
2023-02-18T10:29:24.576Z,6.47
2023-02-18T10:32:06.354Z,8.10
2023-02-18T10:34:49.724Z,6.77
2023-02-18T10:37:46.512Z,8.00
2023-02-18T10:40:52.857Z,6.13
2023-02-18T10:43:22.498Z,6.17
2023-02-18T10:46:32.553Z,6.87
2023-02-18T10:49:31.928Z,7.00
2023-02-18T10:52:01.908Z,6.33
2023-02-18T10:55:00.366Z,6.90
2023-02-18T10:57:27.825Z,6.03
2023-02-18T11:00:20.019Z,5.60
2023-02-18T11:02:47.991Z,8.77
2023-02-18T11:05:26.882Z,7.27
2023-02-18T11:07:56.791Z,5.53
2023-02-18T11:10:30.800Z,4.77
2023-02-18T11:13:02.064Z,5.30
2023-02-18T11:15:29.707Z,5.73
2023-02-18T11:18:11.242Z,6.07
2023-02-18T11:20:38.860Z,5.43
2023-02-18T11:23:19.301Z,5.60
2023-02-18T11:26:00.779Z,6.20
2023-02-18T11:28:43.788Z,6.30
2023-02-18T11:31:16.386Z,6.70
2023-02-18T11:33:57.414Z,5.37
2023-02-18T11:36:26.055Z,4.80
2023-02-18T11:39:04.486Z,4.67
2023-02-18T11:41:35.870Z,5.03
2023-02-18T11:44:05.517Z,7.23
2023-02-18T11:46:32.256Z,6.57
2023-02-18T11:49:21.262Z,6.77
2023-02-18T11:51:48.840Z,4.93
2023-02-18T11:54:30.317Z,6.50
2023-02-18T11:57:10.931Z,5.60
2023-02-18T11:59:39.735Z,6.33
2023-02-18T12:02:19.046Z,5.63
2023-02-18T12:04:51.848Z,7.10
2023-02-18T12:07:31.743Z,6.23
2023-02-18T12:10:02.683Z,5.60
2023-02-18T12:12:44.726Z,6.10
2023-02-18T12:15:19.027Z,6.03
2023-02-18T12:18:03.924Z,9.37
2023-02-18T12:20:42.710Z,5.87
2023-02-18T12:23:21.348Z,8.07
2023-02-18T12:26:08.927Z,6.23
2023-02-18T12:28:59.900Z,9.83
2023-02-18T12:31:37.095Z,9.70
2023-02-18T12:34:22.266Z,5.97
2023-02-18T12:37:11.102Z,6.40
2023-02-18T12:39:54.872Z,9.40
2023-02-18T12:42:30.204Z,7.77
2023-02-18T12:45:17.045Z,6.50
2023-02-18T12:48:08.882Z,6.17
2023-02-18T12:50:47.463Z,9.03
2023-02-18T12:53:46.301Z,6.63
2023-02-18T12:56:12.919Z,6.70
2023-02-18T12:58:59.040Z,6.93
2023-02-18T13:01:48.904Z,9.37
2023-02-18T13:04:55.546Z,9.03
2023-02-18T13:07:22.834Z,8.63
2023-02-18T13:10:04.003Z,8.33
2023-02-18T13:12:53.270Z,9.17
2023-02-18T13:15:40.254Z,9.50
2023-02-18T13:18:31.520Z,8.17
2023-02-18T13:21:07.524Z,11.77
2023-02-18T13:23:54.407Z,10.17
2023-02-18T13:26:22.082Z,10.30
2023-02-18T13:28:49.379Z,14.03
2023-02-18T13:31:22.511Z,11.13
2023-02-18T13:34:03.083Z,12.43
2023-02-18T13:36:37.805Z,9.80
2023-02-18T13:39:08.614Z,7.60
2023-02-18T13:41:38.100Z,8.97
2023-02-18T13:44:28.701Z,8.83
2023-02-18T13:46:57.063Z,7.10
2023-02-18T13:49:37.613Z,8.97
2023-02-18T13:52:05.204Z,11.10
2023-02-18T13:54:44.766Z,7.33
2023-02-18T13:57:21.486Z,6.77
2023-02-18T13:59:48.751Z,8.50
2023-02-18T14:02:22.164Z,15.07
2023-02-18T14:04:52.661Z,7.83
2023-02-18T14:07:20.086Z,7.93
2023-02-18T14:09:48.240Z,4.93
2023-02-18T14:12:19.068Z,4.60
2023-02-18T14:14:46.958Z,5.50
2023-02-18T14:17:21.140Z,4.43
2023-02-18T14:20:04.078Z,6.10
2023-02-18T14:22:48.476Z,6.93
2023-02-18T14:25:16.392Z,4.70
2023-02-18T14:27:44.536Z,11.13
2023-02-18T14:30:29.101Z,8.93
2023-02-18T14:33:03.802Z,7.77
2023-02-18T14:35:34.800Z,7.63
2023-02-18T14:38:15.145Z,11.03
2023-02-18T14:40:49.575Z,7.03
2023-02-18T14:43:36.141Z,7.83
2023-02-18T14:46:12.414Z,7.10
2023-02-18T14:48:43.660Z,8.63
2023-02-18T14:51:12.301Z,8.27
2023-02-18T14:53:45.130Z,10.60
2023-02-18T14:56:16.634Z,11.90
2023-02-18T14:58:55.706Z,8.90
2023-02-18T15:01:28.181Z,8.83
2023-02-18T15:03:58.764Z,6.03
2023-02-18T15:06:33.646Z,10.57
2023-02-18T15:09:04.453Z,9.80
2023-02-18T15:11:39.261Z,6.50
2023-02-18T15:14:13.898Z,6.93
2023-02-18T15:16:44.347Z,4.57
2023-02-18T15:19:19.592Z,6.00
2023-02-18T15:21:51.392Z,11.13
2023-02-18T15:24:38.008Z,5.90
2023-02-18T15:27:15.174Z,6.60
2023-02-18T15:29:45.767Z,7.37
2023-02-18T15:32:24.297Z,6.37
2023-02-18T15:35:04.757Z,10.43
2023-02-18T15:37:35.424Z,8.40
2023-02-18T15:40:07.625Z,7.93
2023-02-18T15:42:42.034Z,7.20
2023-02-18T15:45:45.829Z,12.10
2023-02-18T15:48:38.582Z,7.57
2023-02-18T15:51:18.041Z,7.40
2023-02-18T15:54:00.707Z,12.13
2023-02-18T15:56:44.668Z,10.83
2023-02-18T15:59:30.497Z,8.43
2023-02-18T16:02:12.627Z,10.20
2023-02-18T16:05:00.282Z,9.17
2023-02-18T16:07:51.371Z,10.73
2023-02-18T16:10:36.044Z,16.70
2023-02-18T16:13:17.965Z,12.33
2023-02-18T16:16:01.119Z,12.97
2023-02-18T16:18:45.576Z,8.33
2023-02-18T16:21:34.142Z,7.50
2023-02-18T16:24:13.932Z,11.73
2023-02-18T16:26:54.659Z,16.17
2023-02-18T16:29:38.112Z,10.17
2023-02-18T16:32:21.212Z,10.60
2023-02-18T16:35:03.545Z,15.93
2023-02-18T16:37:45.918Z,13.73
2023-02-18T16:40:31.609Z,8.40
2023-02-18T16:43:18.165Z,11.10
2023-02-18T16:46:08.156Z,9.83
2023-02-18T16:48:57.907Z,13.07
2023-02-18T16:51:42.621Z,9.80
2023-02-18T16:54:29.091Z,16.80
2023-02-18T16:57:07.712Z,9.73
2023-02-18T16:59:48.720Z,12.77
2023-02-18T17:02:35.954Z,11.80
2023-02-18T17:05:26.378Z,6.30
2023-02-18T17:08:09.790Z,16.23
2023-02-18T17:10:46.176Z,18.37
2023-02-18T17:13:24.687Z,12.67
2023-02-18T17:16:04.493Z,14.47
2023-02-18T17:18:43.768Z,16.47
2023-02-18T17:21:34.966Z,19.30
2023-02-18T17:24:22.059Z,9.73
2023-02-18T17:27:05.044Z,14.13
2023-02-18T17:29:50.322Z,74.80
2023-02-18T17:32:35.325Z,12.27
2023-02-18T17:35:14.066Z,10.77
2023-02-18T17:38:01.372Z,12.57
2023-02-18T17:40:51.354Z,11.17
2023-02-18T17:43:58.084Z,18.77
2023-02-18T17:46:59.746Z,11.03
2023-02-18T17:49:55.449Z,14.77
2023-02-18T17:53:06.444Z,15.93
2023-02-18T17:56:15.824Z,15.17
2023-02-18T17:58:46.429Z,11.57
2023-02-18T18:01:15.881Z,13.47
2023-02-18T18:03:45.132Z,21.70
2023-02-18T18:06:18.503Z,15.43
2023-02-18T18:08:48.138Z,13.80
2023-02-18T18:11:24.761Z,16.00
2023-02-18T18:13:54.558Z,19.77
2023-02-18T18:16:24.020Z,13.90
2023-02-18T18:18:53.310Z,15.50
2023-02-18T18:21:27.009Z,15.23
2023-02-18T18:23:56.280Z,15.70
2023-02-18T18:26:25.527Z,18.07
2023-02-18T18:28:54.820Z,13.93
2023-02-18T18:31:24.324Z,16.20
2023-02-18T18:33:54.161Z,25.33
2023-02-18T18:36:24.587Z,22.63
2023-02-18T18:38:53.994Z,14.50
2023-02-18T18:41:24.944Z,14.50
2023-02-18T18:43:54.248Z,16.33
2023-02-18T18:46:23.551Z,15.33
2023-02-18T18:48:52.695Z,16.13
2023-02-18T18:51:24.225Z,14.23
2023-02-18T18:53:53.187Z,12.33
2023-02-18T18:56:22.061Z,12.30
2023-02-18T18:58:51.446Z,14.00
2023-02-18T19:01:23.131Z,11.77
2023-02-18T19:03:52.379Z,15.00
2023-02-18T19:06:21.359Z,11.00
2023-02-18T19:08:50.505Z,16.43
2023-02-18T19:11:19.608Z,13.13
2023-02-18T19:13:48.536Z,11.97
2023-02-18T19:16:52.613Z,14.70
2023-02-18T19:19:24.498Z,17.10
2023-02-18T19:21:53.436Z,19.97
2023-02-18T19:24:22.178Z,19.67
2023-02-18T19:26:50.920Z,21.63
2023-02-18T19:29:23.223Z,20.97
2023-02-18T19:31:52.624Z,20.40
2023-02-18T19:34:22.731Z,17.73
2023-02-18T19:36:51.019Z,21.10
2023-02-18T19:39:19.617Z,21.33
2023-02-18T19:41:48.225Z,21.43
2023-02-18T19:44:16.486Z,23.07
2023-02-18T19:46:44.725Z,23.97
2023-02-18T19:49:12.870Z,23.27
2023-02-18T19:51:40.920Z,25.77
2023-02-18T19:54:09.073Z,22.57
2023-02-18T19:56:37.283Z,25.30
2023-02-18T19:59:05.438Z,28.33
2023-02-18T20:01:33.579Z,17.43
2023-02-18T20:04:01.873Z,19.97
2023-02-18T20:06:30.572Z,21.27
2023-02-18T20:08:58.596Z,20.03
2023-02-18T20:11:26.706Z,25.47
2023-02-18T20:13:54.304Z,26.77
2023-02-18T20:16:22.409Z,26.83
2023-02-18T20:18:50.430Z,21.87
2023-02-18T20:21:18.545Z,25.50
2023-02-18T20:23:46.832Z,24.27
2023-02-18T20:26:15.743Z,30.17
2023-02-18T20:28:44.431Z,33.60
2023-02-18T20:31:14.151Z,29.17
2023-02-18T20:33:42.944Z,24.60
2023-02-18T20:36:11.265Z,21.57
2023-02-18T20:38:39.610Z,23.20
2023-02-18T20:41:08.935Z,22.57
2023-02-18T20:43:37.222Z,19.47
2023-02-18T20:46:09.098Z,21.10
2023-02-18T20:48:37.801Z,23.37
2023-02-18T20:51:09.400Z,25.27
2023-02-18T20:53:37.755Z,18.97
2023-02-18T20:56:06.440Z,25.10
2023-02-18T20:58:35.116Z,27.43
2023-02-18T21:01:08.034Z,23.33
2023-02-18T21:03:37.125Z,23.40
2023-02-18T21:06:15.727Z,24.93
2023-02-18T21:08:44.813Z,22.13
2023-02-18T21:11:14.376Z,21.80
2023-02-18T21:13:42.631Z,25.17
2023-02-18T21:16:10.611Z,22.50
2023-02-18T21:18:39.636Z,23.43
2023-02-18T21:21:09.400Z,21.27
2023-02-18T21:23:38.430Z,20.20
2023-02-18T21:26:08.002Z,21.13
2023-02-18T21:28:36.307Z,17.73
2023-02-18T21:31:04.874Z,20.30
2023-02-18T21:33:33.331Z,17.40
2023-02-18T21:36:03.234Z,17.03
2023-02-18T21:38:31.399Z,18.00
2023-02-18T21:40:59.460Z,16.47
2023-02-18T21:43:27.612Z,15.27
2023-02-18T21:45:55.636Z,17.63
2023-02-18T21:48:42.051Z,15.07
2023-02-18T21:51:29.886Z,15.57
2023-02-18T21:53:56.540Z,14.40
2023-02-18T21:56:23.868Z,12.87
2023-02-18T21:58:50.519Z,15.37
2023-02-18T22:01:17.869Z,13.47
2023-02-18T22:03:44.612Z,12.00
2023-02-18T22:06:11.266Z,10.47
2023-02-18T22:08:37.957Z,12.70
2023-02-18T22:11:05.392Z,14.73
2023-02-18T22:13:32.216Z,15.37
2023-02-18T22:15:58.885Z,16.33
2023-02-18T22:18:26.358Z,11.50
2023-02-18T22:20:53.637Z,17.97
2023-02-18T22:23:21.666Z,14.33
2023-02-18T22:25:49.232Z,15.30
2023-02-18T22:28:17.029Z,18.03
2023-02-18T22:30:44.391Z,17.83
2023-02-18T22:33:11.914Z,17.17
2023-02-18T22:35:38.567Z,18.00
2023-02-18T22:38:05.867Z,18.07
2023-02-18T22:40:33.886Z,18.73
2023-02-18T22:43:01.333Z,17.07
2023-02-18T22:45:28.654Z,17.73
2023-02-18T22:47:55.991Z,14.67
2023-02-18T22:50:22.692Z,13.13
2023-02-18T22:52:49.407Z,10.60
2023-02-18T22:55:16.349Z,12.33
2023-02-18T22:57:43.044Z,14.27
2023-02-18T23:00:10.629Z,13.10
2023-02-18T23:02:37.428Z,11.97
2023-02-18T23:05:04.114Z,14.60
2023-02-18T23:07:30.815Z,13.83
2023-02-18T23:09:57.592Z,11.10
2023-02-18T23:12:24.566Z,10.83
2023-02-18T23:14:51.390Z,11.57
2023-02-18T23:17:18.168Z,10.27
2023-02-18T23:19:50.169Z,9.97
2023-02-18T23:22:19.412Z,10.40
2023-02-18T23:24:47.232Z,11.40
2023-02-18T23:27:16.121Z,10.93
2023-02-18T23:29:42.832Z,9.33
2023-02-18T23:32:10.068Z,11.43
2023-02-18T23:34:38.196Z,10.57
2023-02-18T23:37:05.332Z,9.30
2023-02-18T23:39:32.169Z,8.67
2023-02-18T23:41:58.839Z,8.27
2023-02-18T23:44:26.600Z,8.13
2023-02-18T23:46:53.382Z,8.47
2023-02-18T23:49:24.943Z,10.33
2023-02-18T23:51:53.373Z,7.97
2023-02-18T23:54:21.192Z,8.20
2023-02-18T23:56:48.207Z,7.53
2023-02-18T23:59:14.965Z,7.47
